createdAt,value
2023-04-20T00:04:18.716Z,62.30
2023-04-20T00:09:20.520Z,56.60
2023-04-20T00:14:22.602Z,59.80
2023-04-20T00:19:24.410Z,59.90
2023-04-20T00:24:26.540Z,61.20
2023-04-20T00:29:28.438Z,69.20
2023-04-20T00:34:32.932Z,65.00
2023-04-20T00:39:36.103Z,68.00
2023-04-20T00:44:38.871Z,66.20
2023-04-20T00:49:40.876Z,71.80
2023-04-20T00:54:45.558Z,70.80
2023-04-20T00:59:48.009Z,76.20
2023-04-20T01:04:50.402Z,69.20
2023-04-20T01:09:52.716Z,74.10
2023-04-20T01:14:54.902Z,76.70
2023-04-20T01:19:56.694Z,78.70
2023-04-20T01:24:59.164Z,78.50
2023-04-20T01:30:01.924Z,79.40
2023-04-20T01:35:05.351Z,72.70
2023-04-20T01:40:13.017Z,82.00
2023-04-20T01:45:15.164Z,92.20
2023-04-20T01:50:17.049Z,85.10
2023-04-20T01:55:20.276Z,83.50
2023-04-20T02:00:22.763Z,90.60
2023-04-20T02:05:25.162Z,90.00
2023-04-20T02:10:27.021Z,87.70
2023-04-20T02:15:29.446Z,91.20
2023-04-20T02:20:31.401Z,87.80
2023-04-20T02:25:33.721Z,87.40
2023-04-20T02:30:35.920Z,95.90
2023-04-20T02:35:39.055Z,94.30
2023-04-20T02:40:41.018Z,89.70
2023-04-20T02:45:43.405Z,93.20
2023-04-20T02:50:45.894Z,95.30
2023-04-20T02:55:56.933Z,87.00
2023-04-20T03:01:09.968Z,93.10
2023-04-20T03:06:12.707Z,92.10
2023-04-20T03:11:16.160Z,101.30
2023-04-20T03:16:18.518Z,102.40
2023-04-20T03:21:26.701Z,101.30
2023-04-20T03:26:29.428Z,104.10
2023-04-20T03:31:57.643Z,95.70
2023-04-20T03:37:00.321Z,109.10
2023-04-20T03:42:02.204Z,106.50
2023-04-20T03:47:04.820Z,92.40
2023-04-20T03:52:07.391Z,90.60
2023-04-20T03:57:10.397Z,108.60
2023-04-20T04:02:15.974Z,109.40
2023-04-20T04:07:20.772Z,117.90
2023-04-20T04:12:23.220Z,122.10
2023-04-20T04:17:26.243Z,124.90
2023-04-20T04:22:31.557Z,124.10
2023-04-20T04:28:12.842Z,100.30
2023-04-20T04:33:22.042Z,110.20
2023-04-20T04:38:25.362Z,105.20
2023-04-20T04:43:27.573Z,74.70
2023-04-20T04:48:41.130Z,66.90
2023-04-20T04:53:45.242Z,60.40
2023-04-20T04:58:47.460Z,60.40
2023-04-20T05:03:49.665Z,65.40
2023-04-20T05:08:52.201Z,78.80
2023-04-20T05:13:54.726Z,70.00
2023-04-20T05:18:57.084Z,63.40
2023-04-20T05:23:58.988Z,70.30
2023-04-20T05:29:01.954Z,72.10
2023-04-20T05:34:03.955Z,65.40
2023-04-20T05:39:06.282Z,57.30
2023-04-20T05:44:08.203Z,56.50
2023-04-20T05:49:10.532Z,56.40
2023-04-20T05:54:12.637Z,57.80
2023-04-20T05:59:16.165Z,58.40
2023-04-20T06:04:19.015Z,59.80
2023-04-20T06:09:21.783Z,51.90
2023-04-20T06:14:23.781Z,55.10
2023-04-20T06:19:25.858Z,55.70
2023-04-20T06:24:28.105Z,50.00
2023-04-20T06:29:30.466Z,47.40
2023-04-20T06:34:32.728Z,45.70
2023-04-20T06:39:35.684Z,46.30
2023-04-20T06:44:37.517Z,43.30
2023-04-20T06:49:39.550Z,33.20
2023-04-20T06:54:41.324Z,39.10
2023-04-20T06:59:43.380Z,40.50
2023-04-20T07:04:45.472Z,31.70
2023-04-20T07:09:47.431Z,35.40
2023-04-20T07:14:49.354Z,35.40
2023-04-20T07:19:52.872Z,54.70
2023-04-20T07:24:54.907Z,87.20
2023-04-20T07:29:58.800Z,42.30
2023-04-20T07:35:01.048Z,31.70
2023-04-20T07:40:06.629Z,30.30
2023-04-20T07:45:11.150Z,46.00
2023-04-20T07:50:13.591Z,39.80
2023-04-20T07:55:16.742Z,51.60
2023-04-20T08:00:19.692Z,45.40
2023-04-20T08:05:23.080Z,45.70
2023-04-20T08:10:25.827Z,50.30
2023-04-20T08:15:28.088Z,50.80
2023-04-20T08:20:30.593Z,40.40
2023-04-20T08:25:32.686Z,38.30
2023-04-20T08:30:35.157Z,38.20
2023-04-20T08:35:37.417Z,32.60
2023-04-20T08:40:40.540Z,37.20
2023-04-20T08:45:49.345Z,30.70
2023-04-20T08:50:51.763Z,32.80
2023-04-20T08:55:53.675Z,22.40
2023-04-20T09:00:55.897Z,24.90
2023-04-20T09:05:58.059Z,27.20
2023-04-20T09:11:00.243Z,25.50
2023-04-20T09:16:13.622Z,23.50
2023-04-20T09:21:18.681Z,22.90
2023-04-20T09:26:21.153Z,23.40
2023-04-20T09:31:24.429Z,23.70
2023-04-20T09:36:41.273Z,24.70
2023-04-20T09:41:44.998Z,14.70
2023-04-20T09:46:47.272Z,15.50
2023-04-20T09:51:50.648Z,15.10
2023-04-20T09:56:56.115Z,18.30
2023-04-20T10:01:58.826Z,15.50
2023-04-20T10:07:06.121Z,11.90
2023-04-20T10:12:10.178Z,18.80
2023-04-20T10:17:12.220Z,15.90
2023-04-20T10:22:30.963Z,13.80
2023-04-20T10:27:33.271Z,32.30
2023-04-20T10:32:35.655Z,16.70
2023-04-20T10:37:48.853Z,13.50
2023-04-20T10:42:50.926Z,17.70
2023-04-20T10:47:52.810Z,14.10
2023-04-20T10:52:54.784Z,14.40
2023-04-20T10:57:57.064Z,14.80
2023-04-20T11:02:59.620Z,10.00
2023-04-20T11:08:02.047Z,12.30
2023-04-20T11:13:04.156Z,11.30
2023-04-20T11:18:08.214Z,15.30
2023-04-20T11:23:11.276Z,11.40
2023-04-20T11:28:13.101Z,13.60
2023-04-20T11:33:16.429Z,14.90
2023-04-20T11:38:29.805Z,12.70
2023-04-20T11:43:32.607Z,11.60
2023-04-20T11:48:34.522Z,12.90
2023-04-20T11:53:37.985Z,14.30
2023-04-20T11:58:39.765Z,13.20
2023-04-20T12:03:43.043Z,11.20
2023-04-20T12:08:48.055Z,9.70
2023-04-20T12:13:50.482Z,9.90
2023-04-20T12:18:52.370Z,9.10
2023-04-20T12:23:54.454Z,9.70
2023-04-20T12:28:57.756Z,9.80
2023-04-20T12:34:00.613Z,9.60
2023-04-20T12:39:03.668Z,9.90
2023-04-20T12:44:07.211Z,10.90
2023-04-20T12:49:10.585Z,10.50
2023-04-20T12:54:12.903Z,11.40
2023-04-20T12:59:15.667Z,9.60
2023-04-20T13:04:18.226Z,10.10
2023-04-20T13:09:20.978Z,10.50
2023-04-20T13:14:25.833Z,12.20
2023-04-20T13:19:30.227Z,12.40
2023-04-20T13:24:32.323Z,10.90
2023-04-20T13:29:34.645Z,14.60
2023-04-20T13:34:37.072Z,13.00
2023-04-20T13:39:38.977Z,13.90
2023-04-20T13:44:41.105Z,11.70
2023-04-20T13:49:43.212Z,10.70
2023-04-20T13:54:45.229Z,9.00
2023-04-20T13:59:47.110Z,9.60
2023-04-20T14:04:49.689Z,6.80
2023-04-20T14:09:53.952Z,11.80
2023-04-20T14:15:00.447Z,8.90
2023-04-20T14:20:04.471Z,9.40
2023-04-20T14:25:07.951Z,8.90
2023-04-20T14:30:10.428Z,9.80
2023-04-20T14:35:12.606Z,8.80
2023-04-20T14:40:15.643Z,7.90
2023-04-20T14:45:17.888Z,6.20
2023-04-20T14:50:20.243Z,6.50
2023-04-20T14:55:26.299Z,6.40
2023-04-20T15:00:28.451Z,6.50
2023-04-20T15:05:30.987Z,9.90
2023-04-20T15:10:33.129Z,7.40
2023-04-20T15:15:47.495Z,6.50
2023-04-20T15:20:52.704Z,7.40
2023-04-20T15:25:55.231Z,4.40
2023-04-20T15:30:57.128Z,9.60
2023-04-20T15:35:59.262Z,7.60
2023-04-20T15:41:01.099Z,6.50
2023-04-20T15:46:03.679Z,7.40
2023-04-20T15:51:05.967Z,7.80
2023-04-20T15:56:08.736Z,7.40
2023-04-20T16:01:10.776Z,7.20
2023-04-20T16:06:13.707Z,7.50
2023-04-20T16:11:15.814Z,5.30
2023-04-20T16:16:19.189Z,4.90
2023-04-20T16:21:24.755Z,8.40
2023-04-20T16:26:26.890Z,7.50
2023-04-20T16:31:29.684Z,6.60
2023-04-20T16:36:38.263Z,8.40
2023-04-20T16:41:40.222Z,9.10
2023-04-20T16:46:43.153Z,7.00
2023-04-20T16:51:45.985Z,5.40
2023-04-20T16:56:48.761Z,8.80
2023-04-20T17:01:51.250Z,7.40
2023-04-20T17:06:54.042Z,7.80
2023-04-20T17:11:59.154Z,8.10
2023-04-20T17:17:02.114Z,7.60
2023-04-20T17:22:04.749Z,11.50
2023-04-20T17:27:06.845Z,7.90
2023-04-20T17:32:09.388Z,10.80
2023-04-20T17:37:12.186Z,10.00
2023-04-20T17:42:16.581Z,9.20
2023-04-20T17:47:18.748Z,8.50
2023-04-20T17:52:22.412Z,8.50
2023-04-20T17:57:24.612Z,11.20
2023-04-20T18:02:26.554Z,14.20
2023-04-20T18:07:28.869Z,16.70
2023-04-20T18:12:31.401Z,17.20
2023-04-20T18:17:33.769Z,15.00
2023-04-20T18:22:37.118Z,16.30
2023-04-20T18:27:39.788Z,15.10
2023-04-20T18:32:42.059Z,21.10
2023-04-20T18:37:44.324Z,15.20
2023-04-20T18:42:46.341Z,18.60
2023-04-20T18:47:48.582Z,24.20
2023-04-20T18:52:51.427Z,22.60
2023-04-20T18:57:53.519Z,17.50
2023-04-20T19:02:55.769Z,20.50
2023-04-20T19:07:58.870Z,23.20
2023-04-20T19:13:01.261Z,17.10
2023-04-20T19:18:04.345Z,19.80
2023-04-20T19:23:08.682Z,16.20
2023-04-20T19:28:12.573Z,14.00
2023-04-20T19:33:15.089Z,15.00
2023-04-20T19:38:19.186Z,18.00
2023-04-20T19:43:21.357Z,19.20
2023-04-20T19:48:23.822Z,25.20
2023-04-20T19:53:26.370Z,31.00
2023-04-20T19:58:30.881Z,26.50
2023-04-20T20:03:32.868Z,21.80
2023-04-20T20:08:35.607Z,28.40
2023-04-20T20:13:37.443Z,25.00
2023-04-20T20:18:41.968Z,22.60
2023-04-20T20:23:44.009Z,21.20
2023-04-20T20:28:46.268Z,26.40
2023-04-20T20:33:48.113Z,23.60
2023-04-20T20:38:53.670Z,21.00
2023-04-20T20:43:58.164Z,20.20
2023-04-20T20:49:01.180Z,18.90
2023-04-20T20:54:03.750Z,23.10
2023-04-20T20:59:06.054Z,21.70
2023-04-20T21:04:08.230Z,23.90
2023-04-20T21:09:10.969Z,32.30
2023-04-20T21:14:13.487Z,24.40
2023-04-20T21:19:16.142Z,20.90
2023-04-20T21:24:19.299Z,25.80
2023-04-20T21:29:21.553Z,22.00
2023-04-20T21:34:23.872Z,24.40
2023-04-20T21:39:25.966Z,25.30
2023-04-20T21:44:29.917Z,25.70
2023-04-20T21:49:34.521Z,24.20
2023-04-20T21:54:40.943Z,33.00
2023-04-20T21:59:43.019Z,28.50
2023-04-20T22:04:45.795Z,30.20
2023-04-20T22:09:47.957Z,31.60
2023-04-20T22:14:49.872Z,31.70
2023-04-20T22:19:52.328Z,34.40
2023-04-20T22:24:54.718Z,36.30
2023-04-20T22:29:56.838Z,36.80
2023-04-20T22:34:58.791Z,32.10
2023-04-20T22:40:00.905Z,34.50
2023-04-20T22:45:04.246Z,36.30
2023-04-20T22:50:09.813Z,32.50
2023-04-20T22:55:11.981Z,37.30
2023-04-20T23:00:14.646Z,33.70
2023-04-20T23:05:20.457Z,35.90
2023-04-20T23:10:28.652Z,34.20
2023-04-20T23:15:34.256Z,34.60
2023-04-20T23:20:39.867Z,29.10
2023-04-20T23:25:42.067Z,39.60
2023-04-20T23:30:44.311Z,38.20
2023-04-20T23:35:46.312Z,39.00
2023-04-20T23:40:50.492Z,36.30
2023-04-20T23:45:53.686Z,44.70
2023-04-20T23:51:02.015Z,44.50
2023-04-20T23:56:05.262Z,42.80
